Cadillac, Michigan
Current Conditions -  °F | °C
As of 12:34 AM on Monday 20 Oct 2014 (Local Time) from KCAD Reporting Station
Overcast Overcast  
Wind Chill: 41°   Ceiling: 3700
Heat Index: 46°   Visibility: 10mi
Dew Point: 44°   Wind: 12mph
Humidity: 93%   Direction: 210°SSW
Pressure: 29.82"   Gusts: NA
Location:  44.26°N, 85.4°W
Report Text: KCAD 200434Z AUTO 21010KT 10SM SCT010 OVC037 07/06 A2982 RMK AO2 T00780068
Loading
Personal Weather Stations






























Interactive Weather Map
Tropical Storm Tracking
New forecast layout! Learn more

10-Day Weather Forecast

Advertisements
Track Severe Weather on mobile